createdAt,value
2022-10-04T00:08:50.636Z,100.00
2022-10-04T00:19:14.906Z,100.00
2022-10-04T00:29:29.044Z,100.00
2022-10-04T00:39:38.747Z,100.00
2022-10-04T00:49:43.195Z,100.00
2022-10-04T00:59:48.795Z,100.00
2022-10-04T01:10:01.352Z,100.00
2022-10-04T01:20:03.425Z,100.00
2022-10-04T01:30:17.936Z,100.00
2022-10-04T01:40:20.147Z,100.00
2022-10-04T01:50:41.192Z,100.00
2022-10-04T02:00:48.390Z,100.00
2022-10-04T02:10:56.152Z,100.00
2022-10-04T02:20:58.538Z,100.00
2022-10-04T02:31:22.659Z,100.00
2022-10-04T02:41:45.020Z,100.00
2022-10-04T02:51:55.435Z,100.00
2022-10-04T03:02:00.479Z,100.00
2022-10-04T03:12:04.745Z,100.00
2022-10-04T03:22:11.955Z,100.00
2022-10-04T03:32:19.215Z,100.00
2022-10-04T03:42:27.836Z,100.00
2022-10-04T03:52:35.113Z,100.00
2022-10-04T04:02:51.931Z,100.00
2022-10-04T04:13:01.558Z,100.00
2022-10-04T04:23:18.216Z,100.00
2022-10-04T04:33:44.223Z,100.00
2022-10-04T04:43:49.095Z,100.00
2022-10-04T04:53:59.591Z,100.00
2022-10-04T05:04:07.151Z,100.00
2022-10-04T05:14:14.720Z,100.00
2022-10-04T05:24:25.237Z,100.00
2022-10-04T05:34:30.945Z,100.00
2022-10-04T05:44:55.881Z,100.00
2022-10-04T05:55:12.416Z,100.00
2022-10-04T06:05:29.343Z,100.00
2022-10-04T06:16:05.171Z,100.00
2022-10-04T06:26:12.348Z,100.00
2022-10-04T06:36:42.945Z,100.00
2022-10-04T06:46:58.643Z,100.00
2022-10-04T06:57:19.551Z,100.00
2022-10-04T07:07:42.169Z,100.00
2022-10-04T07:17:53.299Z,100.00
2022-10-04T07:28:24.175Z,100.00
2022-10-04T07:38:28.525Z,100.00
2022-10-04T07:48:32.820Z,100.00
2022-10-04T07:59:08.427Z,100.00
2022-10-04T08:09:22.014Z,100.00
2022-10-04T08:19:33.447Z,100.00
2022-10-04T08:29:48.764Z,100.00
2022-10-04T08:40:13.238Z,100.00
2022-10-04T08:50:21.670Z,100.00
2022-10-04T09:00:45.820Z,100.00
2022-10-04T09:11:27.870Z,98.71
2022-10-04T09:22:06.218Z,94.68
2022-10-04T09:32:29.207Z,92.81
2022-10-04T09:43:04.979Z,93.15
2022-10-04T09:53:28.367Z,92.55
2022-10-04T10:03:30.448Z,94.37
2022-10-04T10:14:02.851Z,95.79
2022-10-04T10:24:47.684Z,94.50
2022-10-04T10:35:16.197Z,93.32
2022-10-04T10:45:45.929Z,90.00
2022-10-04T10:56:30.446Z,86.09
2022-10-04T11:07:06.448Z,87.87
2022-10-04T11:17:31.088Z,84.92
2022-10-04T11:27:48.968Z,84.89
2022-10-04T11:38:04.325Z,86.34
2022-10-04T11:48:36.484Z,87.52
2022-10-04T11:58:55.831Z,85.63
2022-10-04T12:09:05.147Z,83.45
2022-10-04T12:19:32.412Z,81.71
2022-10-04T12:29:41.273Z,84.52
2022-10-04T12:40:02.836Z,83.34
2022-10-04T12:50:22.538Z,85.74
2022-10-04T13:00:25.914Z,87.82
2022-10-04T13:10:46.187Z,88.27
2022-10-04T13:21:10.318Z,87.16
2022-10-04T13:31:35.989Z,84.04
2022-10-04T13:42:16.923Z,84.65
2022-10-04T13:53:06.067Z,86.90
2022-10-04T14:03:40.332Z,88.15
2022-10-04T14:14:15.637Z,89.00
2022-10-04T14:24:19.032Z,90.06
2022-10-04T14:34:58.700Z,89.17
2022-10-04T14:45:26.376Z,90.05
2022-10-04T14:56:09.572Z,89.89
2022-10-04T15:06:43.722Z,90.81
2022-10-04T15:17:02.771Z,90.75
2022-10-04T15:27:31.857Z,90.78
2022-10-04T15:37:45.964Z,92.43
2022-10-04T15:48:38.952Z,94.95
2022-10-04T15:58:59.441Z,98.02
2022-10-04T16:09:23.763Z,100.00
2022-10-04T16:19:37.416Z,100.00
2022-10-04T16:30:25.619Z,100.00
2022-10-04T16:40:36.120Z,100.00
2022-10-04T16:50:58.616Z,100.00
2022-10-04T17:01:29.825Z,100.00
2022-10-04T17:11:42.249Z,100.00
2022-10-04T17:21:46.631Z,100.00
2022-10-04T17:31:58.932Z,100.00
2022-10-04T17:42:07.971Z,100.00
2022-10-04T17:52:52.832Z,100.00
2022-10-04T18:03:19.856Z,100.00
2022-10-04T18:13:27.652Z,100.00
2022-10-04T18:23:37.083Z,100.00
2022-10-04T18:33:57.628Z,100.00
2022-10-04T18:44:01.188Z,100.00
2022-10-04T18:54:28.133Z,100.00
2022-10-04T19:04:58.084Z,100.00
2022-10-04T19:15:05.782Z,100.00
2022-10-04T19:26:30.021Z,100.00
2022-10-04T19:36:32.735Z,100.00
2022-10-04T19:46:39.333Z,100.00
2022-10-04T19:56:49.886Z,100.00
2022-10-04T20:06:56.349Z,100.00
2022-10-04T20:17:00.299Z,100.00
2022-10-04T20:27:11.471Z,100.00
2022-10-04T20:37:19.480Z,100.00
2022-10-04T20:47:38.336Z,100.00
2022-10-04T20:57:42.658Z,100.00
2022-10-04T21:07:46.913Z,100.00
2022-10-04T21:18:09.827Z,100.00
2022-10-04T21:28:25.207Z,100.00
2022-10-04T21:38:29.509Z,100.00
2022-10-04T21:48:34.945Z,100.00
2022-10-04T21:58:40.569Z,100.00
2022-10-04T22:08:45.641Z,100.00
2022-10-04T22:18:50.216Z,100.00
2022-10-04T22:28:56.220Z,100.00
2022-10-04T22:39:01.290Z,100.00
2022-10-04T22:49:10.961Z,100.00
2022-10-04T22:59:19.635Z,100.00
2022-10-04T23:09:24.001Z,100.00
2022-10-04T23:19:28.485Z,100.00
2022-10-04T23:29:32.501Z,100.00
2022-10-04T23:39:41.665Z,100.00
2022-10-04T23:49:48.442Z,100.00
2022-10-04T23:59:53.527Z,100.00
